createdAt,value
2022-11-10T00:01:37.327Z,18.4
2022-11-10T00:07:15.088Z,18.4
2022-11-10T00:12:22.389Z,18.4
2022-11-10T00:17:44.222Z,18.4
2022-11-10T00:23:06.147Z,18.4
2022-11-10T00:28:28.211Z,18.4
2022-11-10T00:33:50.133Z,18.4
2022-11-10T00:38:57.124Z,18.4
2022-11-10T00:44:19.893Z,18.4
2022-11-10T00:49:40.289Z,18.4
2022-11-10T00:54:46.132Z,18.4
2022-11-10T00:59:52.533Z,18.3
2022-11-10T01:05:14.475Z,18.4
2022-11-10T01:10:36.796Z,18.4
2022-11-10T01:16:01.747Z,18.3
2022-11-10T01:21:23.520Z,18.3
2022-11-10T01:26:45.728Z,18.3
2022-11-10T01:31:36.679Z,18.3
2022-11-10T01:36:43.053Z,18.3
2022-11-10T01:42:04.957Z,18.3
2022-11-10T01:47:27.176Z,18.3
2022-11-10T01:52:48.736Z,18.3
2022-11-10T01:58:10.630Z,18.3
2022-11-10T02:03:32.954Z,18.3
2022-11-10T02:08:53.954Z,18.3
2022-11-10T02:14:00.574Z,18.3
2022-11-10T02:19:38.057Z,18.3
2022-11-10T02:25:14.449Z,18.3
2022-11-10T02:30:52.394Z,18.3
2022-11-10T02:36:14.282Z,18.3
2022-11-10T02:41:34.430Z,18.3
2022-11-10T02:46:56.028Z,18.3
2022-11-10T02:52:33.720Z,18.3
2022-11-10T02:57:54.950Z,18.3
2022-11-10T03:03:22.579Z,18.3
2022-11-10T03:09:00.679Z,18.3
2022-11-10T03:14:58.690Z,18.3
2022-11-10T03:20:36.304Z,18.3
2022-11-10T03:26:13.992Z,18.3
2022-11-10T03:31:50.773Z,18.2
2022-11-10T03:37:32.359Z,18.3
2022-11-10T03:43:09.351Z,18.3
2022-11-10T03:48:31.943Z,18.3
2022-11-10T03:53:58.354Z,18.3
2022-11-10T03:59:20.285Z,18.3
2022-11-10T04:04:26.855Z,18.3
2022-11-10T04:09:33.372Z,18.3
2022-11-10T04:14:56.225Z,18.3
2022-11-10T04:20:17.177Z,18.3
2022-11-10T04:25:38.755Z,18.3
2022-11-10T04:30:30.215Z,18.3
2022-11-10T04:35:52.673Z,18.2
2022-11-10T04:41:13.718Z,18.2
2022-11-10T04:46:36.218Z,18.2
2022-11-10T04:51:58.919Z,18.2
2022-11-10T04:57:21.509Z,18.2
2022-11-10T05:02:29.033Z,18.1
2022-11-10T05:07:51.495Z,18.1
2022-11-10T05:12:42.324Z,18.2
2022-11-10T05:18:04.851Z,18.2
2022-11-10T05:23:11.202Z,18.2
2022-11-10T05:28:32.741Z,18.2
2022-11-10T05:33:55.264Z,18.3
2022-11-10T05:39:34.488Z,18.3
2022-11-10T05:45:11.593Z,18.3
2022-11-10T05:50:33.813Z,18.2
2022-11-10T05:56:12.042Z,18.3
2022-11-10T06:01:49.048Z,18.2
2022-11-10T06:07:28.493Z,18.2
2022-11-10T06:13:05.559Z,18.3
2022-11-10T06:18:43.043Z,18.2
2022-11-10T06:24:28.790Z,18.2
2022-11-10T06:30:06.528Z,18.2
2022-11-10T06:35:50.362Z,18.2
2022-11-10T06:41:28.387Z,18.2
2022-11-10T06:47:06.378Z,18.2
2022-11-10T06:52:43.745Z,18.2
2022-11-10T06:58:22.072Z,18.2
2022-11-10T07:04:35.179Z,18.1
2022-11-10T07:10:13.025Z,18.1
2022-11-10T07:15:36.221Z,18.2
2022-11-10T07:21:14.135Z,18.2
2022-11-10T07:26:57.704Z,18.2
2022-11-10T07:32:40.302Z,18.2
2022-11-10T07:38:23.150Z,18.2
2022-11-10T07:44:05.462Z,18.2
2022-11-10T07:49:42.943Z,18.2
2022-11-10T07:55:20.701Z,18.2
2022-11-10T08:01:02.425Z,18.2
2022-11-10T08:06:41.210Z,18.2
2022-11-10T08:12:04.010Z,18.2
2022-11-10T08:17:41.867Z,18.2
2022-11-10T08:23:23.633Z,18.2
2022-11-10T08:29:02.223Z,18.2
2022-11-10T08:34:47.130Z,18.2
2022-11-10T08:40:45.240Z,18.2
2022-11-10T08:46:24.442Z,18.2
2022-11-10T08:52:02.117Z,18.2
2022-11-10T08:57:40.673Z,18.3
2022-11-10T09:03:24.384Z,18.3
2022-11-10T09:09:02.444Z,18.3
2022-11-10T09:14:40.817Z,18.2
2022-11-10T09:20:25.671Z,18.3
2022-11-10T09:25:54.650Z,18.3
2022-11-10T09:31:39.721Z,18.3
2022-11-10T09:37:22.397Z,18.2
2022-11-10T09:43:03.953Z,18.2
2022-11-10T09:49:14.407Z,18.3
2022-11-10T09:54:52.446Z,18.3
2022-11-10T10:00:34.864Z,18.3
2022-11-10T10:06:15.757Z,18.3
2022-11-10T10:12:19.512Z,18.2
2022-11-10T10:18:00.870Z,18.2
2022-11-10T10:24:18.213Z,18.3
2022-11-10T10:29:58.043Z,18.2
2022-11-10T10:35:40.632Z,18.3
2022-11-10T10:41:23.552Z,18.2
2022-11-10T10:47:05.496Z,18.3
2022-11-10T10:53:11.582Z,18.3
2022-11-10T10:58:33.545Z,18.2
2022-11-10T11:04:12.055Z,18.2
2022-11-10T11:09:50.611Z,18.2
2022-11-10T11:15:34.961Z,18.2
2022-11-10T11:20:59.320Z,18.1
2022-11-10T11:26:37.193Z,18.2
2022-11-10T11:32:17.416Z,18.2
2022-11-10T11:38:00.701Z,18.2
2022-11-10T11:43:40.541Z,18.1
2022-11-10T11:49:19.080Z,18.2
2022-11-10T11:54:41.639Z,18.2
2022-11-10T11:59:37.318Z,18.2
2022-11-10T12:04:49.311Z,18.2
2022-11-10T12:09:56.888Z,18.1
2022-11-10T12:15:04.304Z,18.2
2022-11-10T12:20:31.268Z,18.2
2022-11-10T12:25:39.076Z,18.2
2022-11-10T12:31:02.052Z,18.1
2022-11-10T12:36:09.193Z,18.1
2022-11-10T12:41:16.266Z,18.2
2022-11-10T12:46:22.912Z,18.2
2022-11-10T12:51:46.311Z,18.2
2022-11-10T12:56:52.912Z,18.2
2022-11-10T13:02:20.489Z,18.2
2022-11-10T13:07:47.559Z,18.2
2022-11-10T13:13:10.570Z,18.2
2022-11-10T13:18:32.956Z,18.3
2022-11-10T13:23:57.476Z,18.3
2022-11-10T13:29:20.518Z,18.2
2022-11-10T13:34:26.676Z,18.2
2022-11-10T13:40:08.871Z,18.2
2022-11-10T13:45:33.437Z,18.3
2022-11-10T13:51:11.604Z,18.3
2022-11-10T13:56:39.657Z,18.3
2022-11-10T14:02:17.002Z,18.3
2022-11-10T14:07:56.072Z,18.3
2022-11-10T14:13:18.685Z,18.3
2022-11-10T14:18:57.664Z,18.3
2022-11-10T14:24:40.893Z,18.3
2022-11-10T14:30:26.214Z,18.3
2022-11-10T14:36:05.421Z,18.3
2022-11-10T14:41:44.134Z,18.2
2022-11-10T14:47:22.780Z,18.2
2022-11-10T14:53:01.523Z,18.2
2022-11-10T14:58:41.784Z,18.2
2022-11-10T15:04:21.033Z,18.2
2022-11-10T15:10:07.141Z,18.2
2022-11-10T15:15:45.919Z,18.2
2022-11-10T15:21:24.463Z,18.1
2022-11-10T15:27:03.018Z,18.2
2022-11-10T15:32:41.170Z,18.1
2022-11-10T15:38:08.554Z,18.1
2022-11-10T15:43:40.539Z,18.2
2022-11-10T15:49:21.853Z,18.2
2022-11-10T15:55:06.015Z,18.2
2022-11-10T16:00:28.424Z,18.3
2022-11-10T16:05:50.987Z,18.2
2022-11-10T16:11:30.002Z,18.1
2022-11-10T16:16:53.428Z,18.1
2022-11-10T16:22:32.015Z,18.1
2022-11-10T16:27:43.195Z,18.2
2022-11-10T16:32:50.984Z,18.2
2022-11-10T16:38:13.875Z,18.2
2022-11-10T16:43:37.355Z,18.2
2022-11-10T16:49:16.771Z,18.2
2022-11-10T16:54:23.225Z,18.2
2022-11-10T16:59:21.036Z,18.1
2022-11-10T17:05:04.930Z,18.1
2022-11-10T17:10:12.091Z,18.1
2022-11-10T17:15:34.298Z,17.9
2022-11-10T17:20:42.623Z,17.8
2022-11-10T17:26:06.461Z,17.7
2022-11-10T17:31:03.171Z,17.8
2022-11-10T17:36:47.970Z,17.9
2022-11-10T17:42:11.248Z,17.9
2022-11-10T17:47:19.002Z,17.9
2022-11-10T17:52:46.582Z,17.9
2022-11-10T17:57:42.445Z,18
2022-11-10T18:02:34.530Z,18.4
2022-11-10T18:08:02.067Z,20.4
2022-11-10T18:13:40.664Z,21.3
2022-11-10T18:19:22.840Z,21.9
2022-11-10T18:25:01.909Z,21.9
2022-11-10T18:30:24.791Z,22.5
2022-11-10T18:36:02.632Z,22.9
2022-11-10T18:41:25.871Z,22.7
2022-11-10T18:47:06.386Z,22.6
2022-11-10T18:52:50.712Z,22.3
2022-11-10T18:58:31.760Z,22.8
2022-11-10T19:03:59.327Z,23.3
2022-11-10T19:09:41.777Z,23.2
2022-11-10T19:15:21.102Z,23.7
2022-11-10T19:20:46.813Z,23.9
2022-11-10T19:26:53.381Z,24
2022-11-10T19:32:31.573Z,23.6
2022-11-10T19:37:54.142Z,23.1
2022-11-10T19:43:32.626Z,23.2
2022-11-10T19:49:11.225Z,23.3
2022-11-10T19:54:50.037Z,23.3
2022-11-10T20:00:30.880Z,23.3
2022-11-10T20:06:12.382Z,23.5
2022-11-10T20:11:51.879Z,23.4
2022-11-10T20:17:36.064Z,24.1
2022-11-10T20:23:04.250Z,24.4
2022-11-10T20:28:48.908Z,24.6
2022-11-10T20:34:28.049Z,24.4
2022-11-10T20:40:07.475Z,24
2022-11-10T20:46:04.547Z,24
2022-11-10T20:51:49.437Z,24.1
2022-11-10T20:57:53.279Z,23.6
2022-11-10T21:03:15.829Z,23.8
2022-11-10T21:08:58.214Z,23.7
2022-11-10T21:14:36.708Z,23.6
2022-11-10T21:19:58.405Z,23.4
2022-11-10T21:25:21.600Z,23.1
2022-11-10T21:30:48.093Z,22.8
2022-11-10T21:36:28.189Z,22.6
2022-11-10T21:42:07.266Z,22.4
2022-11-10T21:47:30.789Z,22.4
2022-11-10T21:53:07.760Z,22.1
2022-11-10T21:58:46.561Z,22.1
2022-11-10T22:04:25.864Z,21.9
2022-11-10T22:10:02.371Z,21.8
2022-11-10T22:15:25.421Z,21.7
2022-11-10T22:20:48.650Z,21.5
2022-11-10T22:26:31.939Z,21.4
2022-11-10T22:31:58.701Z,21.3
2022-11-10T22:37:22.175Z,21.1
2022-11-10T22:47:38.428Z,21.4
2022-11-10T22:53:00.486Z,21.6
2022-11-10T22:58:22.966Z,21.6
2022-11-10T23:03:34.312Z,21.6
2022-11-10T23:09:17.307Z,22.6
2022-11-10T23:14:54.150Z,23.5
2022-11-10T23:20:20.784Z,23.7
2022-11-10T23:26:04.530Z,24.3
2022-11-10T23:31:41.864Z,24.6
2022-11-10T23:37:20.483Z,24.6
2022-11-10T23:42:42.950Z,24.4
2022-11-10T23:48:41.892Z,24.4
2022-11-10T23:53:48.976Z,24.3
2022-11-10T23:59:26.894Z,24.1
